Climatologie pour Saint-Brevin les Pins
 
Jour • Résumé pour avril 21, 2019 Système :  Métrique    Anglais   Mixte
« - 1 jour
+ 1 jour »
Jour Semaine Mois Année Personnalisé
  Actuellement : Maximum : Minimum : Moyenne :
Température sous abri : 11.1 °C 15.8 °C 11.1 °C 13.3 °C
Point de rosée : 10.0 °C 12.7 °C 10.0 °C 11.3 °C
Humidité : 93% 93% 82% 88%
Vitesse du vent : 0.0km/h 6.4km/h 0.0km/h 0.4km/h
Rafale : 4.8km/h 12.9km/h - -
Direction Calm - - ENE
Pression : 1019.5 hPa 1021.9 hPa 1019.5 hPa -
Précipitations : 0.0 mm      
Historical Graphs
 
 
Tableau de données pour avril 21, 2019
Heure Tempé Pt rosée Pression Vent Vitesse Rafale Humidité Taux pluie (/hr) Soleil
00:00 15.8 °C 12.7 °C 1021.9 hPa Calm   9.7 km/h 82% 0.0 mm 0.00 W/m2
00:05 15.7 °C 12.7 °C 1021.8 hPa Calm   8.0 km/h 82% 0.0 mm 0.00 W/m2
00:10 15.6 °C 12.5 °C 1021.7 hPa Calm   8.0 km/h 82% 0.0 mm 0.00 W/m2
00:15 15.6 °C 12.7 °C 1021.7 hPa Calm   9.7 km/h 83% 0.0 mm 0.00 W/m2
00:20 15.4 °C 12.5 °C 1021.7 hPa Calm   9.7 km/h 83% 0.0 mm 0.00 W/m2
00:25 15.3 °C 12.6 °C 1021.6 hPa Calm   9.7 km/h 84% 0.0 mm 0.00 W/m2
00:30 15.6 °C 12.7 °C 1021.6 hPa Calm   9.7 km/h 83% 0.0 mm 0.00 W/m2
00:35 15.6 °C 12.5 °C 1021.6 hPa Calm   8.0 km/h 82% 0.0 mm 0.00 W/m2
00:40 15.5 °C 12.6 °C 1021.5 hPa Calm   8.0 km/h 83% 0.0 mm 0.00 W/m2
00:45 15.4 °C 12.6 °C 1021.6 hPa NE 1.6 km/h 8.0 km/h 83% 0.0 mm 0.00 W/m2
00:50 15.4 °C 12.5 °C 1021.6 hPa Calm   12.9 km/h 83% 0.0 mm 0.00 W/m2
00:55 15.3 °C 12.5 °C 1021.6 hPa Calm   12.9 km/h 83% 0.0 mm 0.00 W/m2
01:00 15.2 °C 12.5 °C 1021.6 hPa Calm   9.7 km/h 84% 0.0 mm 0.00 W/m2
01:05 14.9 °C 12.3 °C 1021.5 hPa Calm   9.7 km/h 84% 0.0 mm 0.00 W/m2
01:10 14.7 °C 12.2 °C 1021.5 hPa ENE 3.2 km/h 9.7 km/h 85% 0.0 mm 0.00 W/m2
01:15 14.8 °C 12.3 °C 1021.5 hPa Calm   9.7 km/h 85% 0.0 mm 0.00 W/m2
01:20 14.9 °C 12.4 °C 1021.5 hPa East 4.8 km/h 8.0 km/h 85% 0.0 mm 0.00 W/m2
01:25 15.1 °C 12.4 °C 1021.4 hPa Calm   6.4 km/h 84% 0.0 mm 0.00 W/m2
01:30 14.9 °C 12.2 °C 1021.4 hPa Calm   4.8 km/h 84% 0.0 mm 0.00 W/m2
01:35 14.7 °C 12.0 °C 1021.4 hPa Calm     84% 0.0 mm 0.00 W/m2
01:40 14.2 °C 11.9 °C 1021.3 hPa Calm   1.6 km/h 86% 0.0 mm 0.00 W/m2
01:45 13.8 °C 11.8 °C 1021.2 hPa Calm   1.6 km/h 88% 0.0 mm 0.00 W/m2
01:50 13.8 °C 11.7 °C 1021.2 hPa Calm     87% 0.0 mm 0.00 W/m2
01:55 13.7 °C 11.7 °C 1021.1 hPa Calm   1.6 km/h 88% 0.0 mm 0.00 W/m2
02:00 13.3 °C 11.3 °C 1021.0 hPa Calm   6.4 km/h 88% 0.0 mm 0.00 W/m2
02:05 13.2 °C 11.4 °C 1021.0 hPa Calm   6.4 km/h 89% 0.0 mm 0.00 W/m2
02:10 13.8 °C 11.7 °C 1021.0 hPa Calm   6.4 km/h 87% 0.0 mm 0.00 W/m2
02:15 13.6 °C 11.4 °C 1020.9 hPa Calm   3.2 km/h 87% 0.0 mm 0.00 W/m2
02:20 13.6 °C 11.4 °C 1020.9 hPa Calm   1.6 km/h 87% 0.0 mm 0.00 W/m2
02:25 13.5 °C 11.4 °C 1020.8 hPa Calm   6.4 km/h 87% 0.0 mm 0.00 W/m2
02:30 13.5 °C 11.4 °C 1020.8 hPa Calm   6.4 km/h 87% 0.0 mm 0.00 W/m2
02:35 13.1 °C 11.2 °C 1020.8 hPa Calm   4.8 km/h 88% 0.0 mm 0.00 W/m2
02:40 12.7 °C 11.0 °C 1020.7 hPa ENE 6.4 km/h 6.4 km/h 89% 0.0 mm 0.00 W/m2
02:45 12.7 °C 11.1 °C 1020.6 hPa NE 1.6 km/h 6.4 km/h 90% 0.0 mm 0.00 W/m2
02:50 12.8 °C 11.0 °C 1020.5 hPa Calm   6.4 km/h 89% 0.0 mm 0.00 W/m2
02:55 12.4 °C 10.8 °C 1020.5 hPa Calm   1.6 km/h 90% 0.0 mm 0.00 W/m2
03:00 12.3 °C 10.7 °C 1020.4 hPa Calm   4.8 km/h 90% 0.0 mm 0.00 W/m2
03:05 12.1 °C 10.5 °C 1020.4 hPa Calm   4.8 km/h 90% 0.0 mm 0.00 W/m2
03:10 11.8 °C 10.4 °C 1020.3 hPa Calm   4.8 km/h 91% 0.0 mm 0.00 W/m2
03:15 11.7 °C 10.5 °C 1020.3 hPa Calm     92% 0.0 mm 0.00 W/m2
03:20 11.6 °C 10.4 °C 1020.3 hPa Calm   1.6 km/h 92% 0.0 mm 0.00 W/m2
03:25 11.4 °C 10.2 °C 1020.3 hPa Calm   1.6 km/h 92% 0.0 mm 0.00 W/m2
03:30 11.4 °C 10.3 °C 1020.2 hPa Calm     93% 0.0 mm 0.00 W/m2
03:35 11.4 °C 10.4 °C 1020.2 hPa Calm     93% 0.0 mm 0.00 W/m2
03:40 11.3 °C 10.2 °C 1020.1 hPa Calm     93% 0.0 mm 0.00 W/m2
03:45 11.3 °C 10.2 °C 1020.1 hPa Calm     93% 0.0 mm 0.00 W/m2
03:50 11.2 °C 10.1 °C 1020.1 hPa Calm   1.6 km/h 93% 0.0 mm 0.00 W/m2
03:55 11.2 °C 10.1 °C 1020.0 hPa Calm   4.8 km/h 93% 0.0 mm 0.00 W/m2
04:00 11.2 °C 10.1 °C 1019.9 hPa Calm   4.8 km/h 93% 0.0 mm 0.00 W/m2
04:05 11.2 °C 10.1 °C 1019.8 hPa NNE 3.2 km/h 6.4 km/h 93% 0.0 mm 0.00 W/m2
04:10 11.3 °C 10.2 °C 1019.8 hPa Calm   6.4 km/h 93% 0.0 mm 0.00 W/m2
04:15 11.3 °C 10.2 °C 1019.8 hPa Calm   4.8 km/h 93% 0.0 mm 0.00 W/m2
04:20 11.2 °C 10.1 °C 1019.7 hPa Calm   4.8 km/h 93% 0.0 mm 0.00 W/m2
04:25 11.1 °C 10.0 °C 1019.7 hPa Calm   1.6 km/h 93% 0.0 mm 0.00 W/m2
04:30 11.1 °C 10.0 °C 1019.7 hPa Calm   1.6 km/h 93% 0.0 mm 0.00 W/m2
04:35 11.1 °C 10.0 °C 1019.7 hPa Calm   1.6 km/h 93% 0.0 mm 0.00 W/m2
04:40 11.1 °C 10.0 °C 1019.6 hPa Calm   4.8 km/h 93% 0.0 mm 0.00 W/m2
04:45 11.1 °C 10.0 °C 1019.5 hPa Calm   4.8 km/h 93% 0.0 mm 0.00 W/m2